Time;durP1;ratioP1;P1;durP2;ratioP2;P2;SDS_P1;SDS_P2;PMS_P1;PMS_P2;Temp;Humidity;BMP_temperature;BMP_pressure;BME280_temperature;BME280_humidity;BME280_pressure;Samples;Min_cycle;Max_cycle;Signal;HPM_P1;HPM_P2
2022/01/04 00:02:10;;;;;;;62.53;28.90;;;;;;;;;;6247234;28;20192;-64
2022/01/04 00:05:11;;;;;;;63.25;30.88;;;;;;;;;;6259913;28;20049;-65
2022/01/04 00:08:13;;;;;;;63.22;29.60;;;;;;;;;;6260262;28;20571;-64
2022/01/04 00:11:18;;;;;;;66.38;30.27;;;;;;;;;;6259247;28;20049;-65
2022/01/04 00:14:21;;;;;;;60.97;29.05;;;;;;;;;;6258105;28;20041;-65
2022/01/04 00:17:22;;;;;;;65.45;30.08;;;;;;;;;;6254281;28;20180;-65
2022/01/04 00:20:24;;;;;;;64.13;29.65;;;;;;;;;;6257451;28;20049;-65
2022/01/04 00:23:27;;;;;;;60.45;29.98;;;;;;;;;;6255065;28;20168;-65
2022/01/04 00:26:28;;;;;;;67.10;30.45;;;;;;;;;;6259168;28;20123;-65
2022/01/04 00:29:31;;;;;;;59.70;29.75;;;;;;;;;;6253382;28;20143;-65
2022/01/04 00:32:33;;;;;;;63.38;30.98;;;;;;;;;;6265234;28;20148;-65
2022/01/04 00:35:35;;;;;;;61.97;31.33;;;;;;;;;;6259191;28;20229;-65
2022/01/04 00:38:36;;;;;;;62.90;29.67;;;;;;;;;;6261443;28;20142;-65
2022/01/04 00:41:38;;;;;;;58.70;29.08;;;;;;;;;;6255054;28;20516;-65
2022/01/04 00:44:41;;;;;;;82.75;39.72;;;;;;;;;;6258388;28;20041;-67
2022/01/04 00:49:09;;;;;;;110.88;53.67;;;;;;;;;;6256621;28;20456;-67
2022/01/04 00:51:06;;;;;;;101.82;45.67;;;;;;;;;;6253920;28;20508;-67
2022/01/04 00:54:08;;;;;;;79.30;38.63;;;;;;;;;;6261484;28;20049;-67
2022/01/04 00:57:10;;;;;;;100.28;44.42;;;;;;;;;;6260951;28;20115;-69
2022/01/04 01:00:15;;;;;;;114.32;54.30;;;;;;;;;;6261207;28;20414;-68
2022/01/04 01:03:16;;;;;;;92.03;45.17;;;;;;;;;;6259403;28;20174;-69
2022/01/04 01:06:18;;;;;;;97.60;46.15;;;;;;;;;;6258655;28;20465;-68
2022/01/04 01:09:22;;;;;;;75.55;35.60;;;;;;;;;;6257387;28;20450;-65
2022/01/04 01:12:24;;;;;;;79.82;33.80;;;;;;;;;;6258076;28;20152;-65
2022/01/04 01:15:27;;;;;;;68.90;30.98;;;;;;;;;;6255924;28;20120;-65
2022/01/04 01:18:28;;;;;;;70.30;32.55;;;;;;;;;;6258518;28;20126;-65
2022/01/04 01:21:30;;;;;;;70.18;31.40;;;;;;;;;;6260986;28;20111;-65
2022/01/04 01:24:31;;;;;;;67.55;31.92;;;;;;;;;;6256479;28;20053;-65
2022/01/04 01:27:33;;;;;;;68.05;32.08;;;;;;;;;;6259672;28;20188;-64
2022/01/04 01:30:39;;;;;;;68.00;32.25;;;;;;;;;;6257623;28;20041;-65
2022/01/04 01:33:41;;;;;;;65.78;30.20;;;;;;;;;;6255083;28;20046;-64
2022/01/04 01:36:43;;;;;;;70.80;32.40;;;;;;;;;;6258247;28;20138;-65
2022/01/04 01:39:44;;;;;;;63.00;30.63;;;;;;;;;;6254608;28;20038;-65
2022/01/04 01:42:46;;;;;;;67.35;32.00;;;;;;;;;;6257465;28;20118;-65
2022/01/04 01:45:49;;;;;;;63.92;30.98;;;;;;;;;;6256849;28;20189;-65
2022/01/04 01:48:51;;;;;;;61.50;29.20;;;;;;;;;;6255266;28;20164;-65
2022/01/04 01:51:53;;;;;;;64.22;31.38;;;;;;;;;;6256414;28;20124;-65
2022/01/04 01:54:54;;;;;;;65.07;31.08;;;;;;;;;;6253578;28;20136;-65
2022/01/04 01:57:56;;;;;;;64.75;30.00;;;;;;;;;;6256019;28;20092;-65
2022/01/04 02:00:59;;;;;;;67.57;31.90;;;;;;;;;;6253430;28;20132;-65
2022/01/04 02:04:01;;;;;;;57.50;29.65;;;;;;;;;;6253223;28;20520;-65
2022/01/04 02:07:03;;;;;;;58.33;29.70;;;;;;;;;;6257460;28;20179;-64
2022/01/04 02:10:07;;;;;;;65.75;30.73;;;;;;;;;;6260146;28;20182;-65
2022/01/04 02:13:08;;;;;;;58.60;30.10;;;;;;;;;;6252603;28;20413;-65
2022/01/04 02:16:12;;;;;;;58.20;29.50;;;;;;;;;;6253714;28;20446;-65
2022/01/04 02:19:14;;;;;;;63.47;31.50;;;;;;;;;;6256642;28;20128;-64
2022/01/04 02:22:16;;;;;;;60.55;30.73;;;;;;;;;;6253886;28;20505;-65
2022/01/04 02:25:18;;;;;;;67.18;30.35;;;;;;;;;;6257846;28;20057;-65
2022/01/04 02:28:20;;;;;;;59.00;30.05;;;;;;;;;;6255377;28;20096;-65
2022/01/04 02:31:22;;;;;;;60.08;29.98;;;;;;;;;;6251456;28;20418;-64
2022/01/04 02:34:24;;;;;;;62.80;30.98;;;;;;;;;;6248077;28;20178;-64
2022/01/04 02:37:28;;;;;;;65.78;31.63;;;;;;;;;;6254821;28;20532;-65
2022/01/04 02:40:31;;;;;;;59.97;30.70;;;;;;;;;;6255816;28;20051;-65
2022/01/04 02:43:34;;;;;;;63.47;31.90;;;;;;;;;;6251195;28;20052;-64
2022/01/04 02:46:35;;;;;;;64.70;32.90;;;;;;;;;;6249788;28;20440;-65
2022/01/04 02:49:37;;;;;;;63.50;30.65;;;;;;;;;;6255793;28;20073;-65
2022/01/04 02:52:40;;;;;;;66.70;31.15;;;;;;;;;;6252974;28;20111;-64
2022/01/04 02:55:41;;;;;;;65.18;32.25;;;;;;;;;;6251979;28;20372;-65
2022/01/04 02:58:43;;;;;;;65.30;31.65;;;;;;;;;;6261846;28;20080;-64
2022/01/04 03:01:44;;;;;;;64.93;31.33;;;;;;;;;;6254335;28;20045;-65
2022/01/04 03:04:48;;;;;;;58.80;29.83;;;;;;;;;;6256394;28;20061;-65
2022/01/04 03:07:51;;;;;;;63.88;30.95;;;;;;;;;;6256262;28;20564;-65
2022/01/04 03:10:52;;;;;;;57.78;31.48;;;;;;;;;;6252879;28;20144;-65
2022/01/04 03:13:54;;;;;;;68.78;32.72;;;;;;;;;;6253235;28;20132;-65
2022/01/04 03:16:55;;;;;;;71.93;32.13;;;;;;;;;;6258423;28;20508;-65
2022/01/04 03:19:57;;;;;;;67.22;33.10;;;;;;;;;;6257823;28;20631;-65
2022/01/04 03:23:00;;;;;;;62.30;30.63;;;;;;;;;;6263074;28;20113;-65
2022/01/04 03:26:02;;;;;;;68.35;32.75;;;;;;;;;;6258843;28;20206;-65
2022/01/04 03:29:04;;;;;;;73.72;33.63;;;;;;;;;;6258890;28;20179;-64
2022/01/04 03:32:07;;;;;;;70.47;35.28;;;;;;;;;;6257600;28;20124;-65
2022/01/04 03:35:09;;;;;;;66.43;33.70;;;;;;;;;;6256128;28;20520;-65
2022/01/04 03:38:12;;;;;;;67.60;32.90;;;;;;;;;;6255606;28;20120;-65
2022/01/04 03:41:14;;;;;;;66.30;31.10;;;;;;;;;;6252640;28;20181;-65
2022/01/04 03:44:19;;;;;;;61.95;31.70;;;;;;;;;;6250434;28;20624;-64
2022/01/04 03:47:21;;;;;;;65.72;31.98;;;;;;;;;;6258353;28;20084;-65
2022/01/04 03:50:22;;;;;;;67.80;32.30;;;;;;;;;;6254916;28;20158;-65
2022/01/04 03:53:25;;;;;;;65.78;32.63;;;;;;;;;;6260616;28;20172;-65
2022/01/04 03:56:27;;;;;;;63.10;32.42;;;;;;;;;;6258402;28;20139;-65
2022/01/04 03:59:28;;;;;;;67.43;32.38;;;;;;;;;;6257022;28;20508;-65
2022/01/04 04:02:30;;;;;;;70.68;32.83;;;;;;;;;;6257774;28;20586;-64
2022/01/04 04:05:32;;;;;;;70.60;32.90;;;;;;;;;;6255671;28;20111;-65
2022/01/04 04:08:34;;;;;;;67.45;34.30;;;;;;;;;;6254185;28;20509;-64
2022/01/04 04:11:36;;;;;;;67.53;33.20;;;;;;;;;;6258704;28;20138;-65
2022/01/04 04:14:38;;;;;;;75.18;33.78;;;;;;;;;;6260571;28;20523;-64
2022/01/04 04:17:39;;;;;;;76.40;35.35;;;;;;;;;;6260364;28;20480;-64
2022/01/04 04:20:42;;;;;;;71.97;34.13;;;;;;;;;;6262452;28;20543;-64
2022/01/04 04:23:45;;;;;;;68.43;33.42;;;;;;;;;;6258885;28;20237;-65
2022/01/04 04:26:46;;;;;;;63.97;33.15;;;;;;;;;;6253317;28;20064;-64
2022/01/04 04:29:48;;;;;;;76.05;34.42;;;;;;;;;;6253431;28;20585;-64
2022/01/04 04:32:49;;;;;;;78.47;34.97;;;;;;;;;;6253656;28;20183;-65
2022/01/04 04:35:51;;;;;;;67.80;33.88;;;;;;;;;;6259336;28;20178;-65
2022/01/04 04:38:54;;;;;;;70.28;32.70;;;;;;;;;;6258945;28;20057;-65
2022/01/04 04:41:55;;;;;;;77.35;34.65;;;;;;;;;;6259789;28;20099;-65
2022/01/04 04:44:57;;;;;;;81.65;34.97;;;;;;;;;;6265676;28;20554;-65
2022/01/04 04:47:59;;;;;;;78.30;35.20;;;;;;;;;;6260134;28;20453;-65
2022/01/04 04:51:00;;;;;;;70.43;33.58;;;;;;;;;;6261036;28;20190;-65
2022/01/04 04:54:03;;;;;;;78.82;34.67;;;;;;;;;;6260341;28;20124;-64
2022/01/04 04:57:05;;;;;;;75.43;34.35;;;;;;;;;;6257318;28;20285;-65
2022/01/04 05:00:08;;;;;;;76.70;35.50;;;;;;;;;;6262156;28;20126;-65
2022/01/04 05:03:10;;;;;;;86.22;35.72;;;;;;;;;;6260359;28;20088;-65
2022/01/04 05:06:11;;;;;;;83.15;36.38;;;;;;;;;;6258942;28;20088;-64
2022/01/04 05:09:14;;;;;;;82.95;35.42;;;;;;;;;;6258326;28;20565;-64
2022/01/04 05:12:16;;;;;;;73.47;33.85;;;;;;;;;;6259945;28;20136;-65
2022/01/04 05:15:18;;;;;;;70.70;33.78;;;;;;;;;;6259203;28;20182;-65
2022/01/04 05:18:19;;;;;;;73.55;34.08;;;;;;;;;;6260323;28;20072;-65
2022/01/04 05:21:21;;;;;;;75.70;35.05;;;;;;;;;;6253968;28;20697;-64
2022/01/04 05:24:24;;;;;;;81.72;36.67;;;;;;;;;;6262539;28;20525;-65
2022/01/04 05:27:25;;;;;;;81.13;35.38;;;;;;;;;;6260488;28;20068;-65
2022/01/04 05:30:27;;;;;;;79.75;33.00;;;;;;;;;;6255961;28;20059;-65
2022/01/04 05:33:29;;;;;;;72.68;32.83;;;;;;;;;;6254434;28;20171;-65
2022/01/04 05:36:30;;;;;;;75.65;33.97;;;;;;;;;;6259133;28;20055;-64
2022/01/04 05:39:33;;;;;;;75.43;34.28;;;;;;;;;;6256401;28;20056;-65
2022/01/04 05:42:35;;;;;;;78.05;33.45;;;;;;;;;;6258566;28;20179;-65
2022/01/04 05:45:36;;;;;;;82.63;32.08;;;;;;;;;;6257123;28;20123;-64
2022/01/04 05:48:38;;;;;;;74.40;32.65;;;;;;;;;;6255886;28;20114;-65
2022/01/04 05:51:39;;;;;;;79.47;34.78;;;;;;;;;;6253021;28;20076;-64
2022/01/04 05:54:43;;;;;;;79.35;32.80;;;;;;;;;;6250394;28;20489;-65
2022/01/04 05:57:45;;;;;;;73.68;33.05;;;;;;;;;;6251860;28;20053;-64
2022/01/04 06:00:46;;;;;;;87.68;34.92;;;;;;;;;;6260502;28;20521;-65
2022/01/04 06:03:51;;;;;;;83.22;34.83;;;;;;;;;;6254754;28;20116;-64
2022/01/04 06:06:54;;;;;;;;;;;;;;;;;;6259443;28;20049;-65
2022/01/04 06:09:57;;;;;;;74.68;30.48;;;;;;;;;;6255264;28;20417;-65
2022/01/04 06:16:17;;;;;;;84.70;34.47;;;;;;;;;;6256449;28;20061;-65
2022/01/04 06:19:19;;;;;;;77.13;33.25;;;;;;;;;;6259305;28;20127;-65
2022/01/04 06:22:20;;;;;;;83.80;33.53;;;;;;;;;;6258960;28;20569;-64
2022/01/04 06:25:24;;;;;;;89.50;33.78;;;;;;;;;;6255998;28;20501;-65
2022/01/04 06:28:25;;;;;;;80.97;33.75;;;;;;;;;;6256277;28;20057;-63
2022/01/04 06:31:28;;;;;;;84.18;33.65;;;;;;;;;;6253002;28;20129;-64
2022/01/04 06:34:29;;;;;;;88.50;33.70;;;;;;;;;;6255616;28;20053;-64
2022/01/04 06:37:32;;;;;;;85.35;35.63;;;;;;;;;;6257650;28;20167;-64
2022/01/04 06:40:35;;;;;;;94.65;36.58;;;;;;;;;;6252396;28;20041;-64
2022/01/04 06:43:36;;;;;;;94.72;38.58;;;;;;;;;;6252341;28;20541;-64
2022/01/04 06:46:44;;;;;;;91.45;36.28;;;;;;;;;;6253791;28;20115;-64
2022/01/04 06:49:46;;;;;;;104.57;37.40;;;;;;;;;;6251430;28;20124;-64
2022/01/04 06:52:48;;;;;;;97.93;36.95;;;;;;;;;;6253337;28;20084;-64
2022/01/04 06:55:52;;;;;;;99.70;38.45;;;;;;;;;;6252089;28;20098;-65
2022/01/04 06:58:53;;;;;;;;;;;;;;;;;;6253387;28;20132;-64
2022/01/04 07:01:55;;;;;;;95.53;36.75;;;;;;;;;;6253918;28;20004;-64
2022/01/04 07:04:56;;;;;;;117.93;40.92;;;;;;;;;;6258305;28;20126;-65
2022/01/04 07:07:58;;;;;;;117.82;39.03;;;;;;;;;;6255741;28;20595;-64
2022/01/04 07:11:01;;;;;;;117.65;42.47;;;;;;;;;;6255807;28;20135;-65
2022/01/04 07:14:03;;;;;;;119.95;41.75;;;;;;;;;;6252696;28;20128;-64
2022/01/04 07:17:04;;;;;;;122.55;40.17;;;;;;;;;;6248526;28;20180;-65
2022/01/04 07:20:07;;;;;;;108.22;39.97;;;;;;;;;;6253960;28;20160;-64
2022/01/04 07:23:08;;;;;;;114.43;39.97;;;;;;;;;;6254204;28;20527;-64
2022/01/04 07:26:14;;;;;;;102.28;37.67;;;;;;;;;;6252637;28;20045;-64
2022/01/04 07:29:16;;;;;;;102.90;35.15;;;;;;;;;;6252374;28;20064;-64
2022/01/04 07:32:17;;;;;;;104.75;38.53;;;;;;;;;;6264222;28;20488;-64
2022/01/04 07:35:19;;;;;;;100.40;37.85;;;;;;;;;;6263581;28;20129;-65
2022/01/04 07:38:20;;;;;;;92.70;38.05;;;;;;;;;;6261405;28;20468;-64
2022/01/04 07:41:23;;;;;;;102.22;37.03;;;;;;;;;;6257703;28;20136;-65
2022/01/04 07:44:25;;;;;;;103.57;36.55;;;;;;;;;;6260706;28;20048;-65
2022/01/04 07:47:27;;;;;;;96.55;36.33;;;;;;;;;;6255434;28;20045;-64
2022/01/04 07:50:29;;;;;;;105.70;39.35;;;;;;;;;;6258790;28;20041;-64
2022/01/04 07:53:31;;;;;;;103.95;38.15;;;;;;;;;;6257265;28;20114;-64
2022/01/04 07:56:34;;;;;;;103.05;38.30;;;;;;;;;;6255590;28;20496;-64
2022/01/04 07:59:36;;;;;;;98.07;37.25;;;;;;;;;;6261284;28;20535;-64
2022/01/04 08:02:38;;;;;;;98.18;36.80;;;;;;;;;;6264176;28;20045;-64
2022/01/04 08:05:40;;;;;;;98.93;36.83;;;;;;;;;;6260382;28;20081;-64
2022/01/04 08:08:42;;;;;;;88.93;35.67;;;;;;;;;;6257171;28;20045;-64
2022/01/04 08:11:45;;;;;;;92.28;36.08;;;;;;;;;;6256358;28;20608;-64
2022/01/04 08:14:48;;;;;;;88.82;34.78;;;;;;;;;;6254505;28;20183;-64
2022/01/04 08:17:49;;;;;;;83.38;31.55;;;;;;;;;;6259811;28;20045;-64
2022/01/04 08:20:56;;;;;;;82.50;33.60;;;;;;;;;;6252635;28;20486;-64
2022/01/04 08:23:57;;;;;;;82.18;32.67;;;;;;;;;;6267093;28;20405;-63
2022/01/04 08:27:00;;;;;;;77.80;32.50;;;;;;;;;;6269236;28;20553;-65
2022/01/04 08:30:04;;;;;;;85.13;33.67;;;;;;;;;;6252839;28;20048;-64
2022/01/04 08:33:05;;;;;;;83.50;34.63;;;;;;;;;;6263540;28;20080;-64
2022/01/04 08:36:09;;;;;;;80.68;33.08;;;;;;;;;;6257386;28;20049;-64
2022/01/04 08:39:14;;;;;;;80.13;33.80;;;;;;;;;;6261076;28;20068;-64
2022/01/04 08:42:17;;;;;;;78.05;32.67;;;;;;;;;;6255857;28;20059;-64
2022/01/04 08:45:21;;;;;;;78.05;33.92;;;;;;;;;;6257407;28;20497;-64
2022/01/04 08:48:22;;;;;;;77.38;33.05;;;;;;;;;;6253073;28;20409;-64
2022/01/04 08:51:24;;;;;;;78.80;31.55;;;;;;;;;;6249555;28;20049;-64
2022/01/04 08:54:25;;;;;;;78.22;32.00;;;;;;;;;;6258386;28;20176;-64
2022/01/04 08:57:29;;;;;;;74.70;31.52;;;;;;;;;;6260471;28;20506;-64
2022/01/04 09:00:30;;;;;;;80.10;31.47;;;;;;;;;;6256709;28;20053;-65
2022/01/04 09:03:33;;;;;;;82.65;32.00;;;;;;;;;;6255040;28;20501;-64
2022/01/04 09:06:35;;;;;;;76.28;31.50;;;;;;;;;;6258838;28;20060;-64
2022/01/04 09:09:36;;;;;;;66.63;30.30;;;;;;;;;;6256925;28;20097;-64
2022/01/04 09:12:50;;;;;;;67.25;27.70;;;;;;;;;;6259399;28;20058;-64
2022/01/04 09:19:13;;;;;;;69.35;29.00;;;;;;;;;;6258090;28;20056;-64
2022/01/04 09:22:15;;;;;;;70.53;30.25;;;;;;;;;;6261768;28;20267;-63
2022/01/04 09:25:16;;;;;;;74.30;29.23;;;;;;;;;;6261520;28;20045;-64
2022/01/04 09:28:22;;;;;;;78.15;32.70;;;;;;;;;;6261901;28;20057;-63
2022/01/04 09:31:25;;;;;;;83.68;33.45;;;;;;;;;;6257082;28;20047;-64
2022/01/04 09:34:27;;;;;;;82.85;33.35;;;;;;;;;;6257519;28;20136;-64
2022/01/04 09:37:29;;;;;;;83.93;34.78;;;;;;;;;;6256246;28;20069;-64
2022/01/04 09:40:31;;;;;;;76.50;34.28;;;;;;;;;;6259841;28;20195;-64
2022/01/04 09:43:34;;;;;;;90.57;34.92;;;;;;;;;;6263773;28;20496;-64
2022/01/04 09:46:35;;;;;;;96.45;34.70;;;;;;;;;;6254843;28;20166;-64
2022/01/04 09:49:37;;;;;;;88.18;35.60;;;;;;;;;;6258713;28;20076;-64
2022/01/04 09:52:42;;;;;;;81.97;34.15;;;;;;;;;;6258771;28;20127;-64
2022/01/04 09:55:43;;;;;;;77.75;33.38;;;;;;;;;;6257794;28;20098;-64
2022/01/04 09:58:46;;;;;;;82.47;35.92;;;;;;;;;;6257483;28;20531;-64
2022/01/04 10:01:53;;;;;;;81.45;35.75;;;;;;;;;;6256729;28;20160;-64
2022/01/04 10:05:12;;;;;;;82.00;33.80;;;;;;;;;;6257648;28;20397;-64
2022/01/04 10:08:15;;;;;;;79.90;32.13;;;;;;;;;;6250952;28;20124;-64
2022/01/04 10:11:17;;;;;;;79.33;35.10;;;;;;;;;;6255256;28;20513;-64
2022/01/04 10:14:28;;;;;;;82.63;34.63;;;;;;;;;;6256550;28;20128;-64
2022/01/04 10:17:31;;;;;;;78.40;33.53;;;;;;;;;;6257648;28;20048;-64
2022/01/04 10:20:32;;;;;;;83.50;32.67;;;;;;;;;;6260190;28;20429;-64
2022/01/04 10:23:44;;;;;;;73.63;34.00;;;;;;;;;;6256044;28;20048;-64
2022/01/04 10:26:47;;;;;;;74.00;33.53;;;;;;;;;;6257289;28;20096;-64
2022/01/04 10:30:08;;;;;;;78.28;34.05;;;;;;;;;;6257035;28;20406;-64
2022/01/04 10:33:11;;;;;;;79.05;34.33;;;;;;;;;;6260352;28;20502;-63
2022/01/04 10:36:12;;;;;;;74.82;34.22;;;;;;;;;;6260597;28;20130;-64
2022/01/04 10:39:14;;;;;;;79.45;34.60;;;;;;;;;;6254700;28;20176;-64
2022/01/04 10:42:16;;;;;;;81.60;34.67;;;;;;;;;;6254771;28;20100;-64
2022/01/04 10:45:24;;;;;;;70.13;33.72;;;;;;;;;;6251093;28;20095;-64
2022/01/04 10:48:27;;;;;;;73.82;34.33;;;;;;;;;;6251188;28;20136;-64
2022/01/04 10:51:30;;;;;;;71.50;33.08;;;;;;;;;;6253402;28;20045;-64
2022/01/04 10:54:32;;;;;;;75.15;34.08;;;;;;;;;;6253571;28;20068;-64
2022/01/04 10:57:36;;;;;;;71.20;32.95;;;;;;;;;;6253618;28;20694;-64
2022/01/04 11:00:38;;;;;;;72.43;33.63;;;;;;;;;;6259521;28;20099;-64
2022/01/04 11:03:44;;;;;;;68.78;33.75;;;;;;;;;;6255240;28;20175;-64
2022/01/04 11:06:46;;;;;;;67.57;33.83;;;;;;;;;;6258062;28;20083;-64
2022/01/04 11:09:48;;;;;;;77.45;34.47;;;;;;;;;;6257845;28;20614;-64
2022/01/04 11:12:50;;;;;;;82.50;35.00;;;;;;;;;;6258532;28;20084;-64
2022/01/04 11:15:53;;;;;;;71.68;34.13;;;;;;;;;;6259155;28;20123;-64
2022/01/04 11:18:56;;;;;;;76.13;34.10;;;;;;;;;;6255633;28;20095;-64
2022/01/04 11:21:59;;;;;;;71.90;33.73;;;;;;;;;;6253119;28;20076;-64
2022/01/04 11:25:03;;;;;;;72.38;32.05;;;;;;;;;;6259630;28;20114;-63
2022/01/04 11:28:07;;;;;;;71.25;32.15;;;;;;;;;;6256649;28;20087;-64
2022/01/04 11:31:32;;;;;;;;;;;;;;;;;;6257281;28;20072;-64
2022/01/04 11:34:52;;;;;;;63.55;30.02;;;;;;;;;;6253355;28;20010;-64
2022/01/04 11:37:54;;;;;;;65.55;30.95;;;;;;;;;;6256002;28;20052;-64
2022/01/04 11:40:56;;;;;;;73.00;32.78;;;;;;;;;;6259412;28;20466;-64
2022/01/04 11:43:57;;;;;;;65.68;30.40;;;;;;;;;;6256185;28;20131;-64
2022/01/04 11:47:01;;;;;;;64.90;29.33;;;;;;;;;;6253768;28;20128;-65
2022/01/04 11:50:13;;;;;;;66.22;30.02;;;;;;;;;;6254495;28;20065;-64
2022/01/04 11:53:15;;;;;;;62.75;29.63;;;;;;;;;;6254109;28;20111;-64
2022/01/04 11:56:16;;;;;;;64.95;29.10;;;;;;;;;;6252875;28;20517;-63
2022/01/04 11:59:20;;;;;;;61.15;29.80;;;;;;;;;;6252650;28;20456;-63
2022/01/04 12:02:30;;;;;;;67.45;30.52;;;;;;;;;;6255673;28;20053;-63
2022/01/04 12:05:33;;;;;;;60.70;29.38;;;;;;;;;;6256036;28;20250;-64
2022/01/04 12:08:36;;;;;;;57.22;27.33;;;;;;;;;;6255236;28;20128;-64
2022/01/04 12:11:40;;;;;;;53.88;25.35;;;;;;;;;;6257755;28;20406;-64
2022/01/04 12:14:41;;;;;;;59.00;28.67;;;;;;;;;;6264067;28;20045;-64
2022/01/04 12:17:45;;;;;;;53.80;27.35;;;;;;;;;;6263252;28;20167;-64
2022/01/04 12:20:48;;;;;;;58.27;28.43;;;;;;;;;;6260351;28;20060;-64
2022/01/04 12:23:50;;;;;;;53.47;26.65;;;;;;;;;;6257805;28;20500;-64
2022/01/04 12:27:08;;;;;;;51.40;26.48;;;;;;;;;;6259630;28;20087;-64
2022/01/04 12:30:26;;;;;;;51.53;26.75;;;;;;;;;;6255271;28;20048;-64
2022/01/04 12:33:35;;;;;;;51.40;26.23;;;;;;;;;;6252662;28;20041;-64
2022/01/04 12:36:40;;;;;;;56.45;27.88;;;;;;;;;;6266086;28;20485;-64
2022/01/04 12:39:43;;;;;;;51.47;26.38;;;;;;;;;;6257939;28;20044;-64
2022/01/04 12:42:44;;;;;;;51.65;26.85;;;;;;;;;;6264731;28;20103;-64
2022/01/04 12:45:56;;;;;;;48.60;25.30;;;;;;;;;;6264821;28;20128;-64
2022/01/04 12:48:59;;;;;;;49.03;24.58;;;;;;;;;;6259757;28;20115;-63
2022/01/04 12:52:04;;;;;;;46.08;25.83;;;;;;;;;;6265031;28;20045;-64
2022/01/04 12:55:10;;;;;;;46.40;25.48;;;;;;;;;;6257881;28;20136;-64
2022/01/04 12:58:12;;;;;;;47.10;26.17;;;;;;;;;;6257304;28;20103;-64
2022/01/04 13:01:14;;;;;;;47.38;25.58;;;;;;;;;;6254375;28;20045;-64
2022/01/04 13:04:21;;;;;;;44.25;26.17;;;;;;;;;;6267843;28;20045;-64
2022/01/04 13:07:27;;;;;;;44.17;25.60;;;;;;;;;;6267641;28;20076;-64
2022/01/04 13:10:29;;;;;;;46.55;25.10;;;;;;;;;;6262185;28;20417;-64
2022/01/04 13:13:31;;;;;;;43.88;24.75;;;;;;;;;;6258415;28;20127;-64
2022/01/04 13:16:34;;;;;;;44.42;25.58;;;;;;;;;;6259934;28;20052;-64
2022/01/04 13:19:37;;;;;;;43.65;24.50;;;;;;;;;;6256104;28;20049;-64
2022/01/04 13:22:42;;;;;;;45.55;25.60;;;;;;;;;;6258721;28;20501;-64
2022/01/04 13:25:44;;;;;;;47.55;24.85;;;;;;;;;;6253234;28;20067;-64
2022/01/04 13:28:54;;;;;;;40.97;23.48;;;;;;;;;;6256294;28;20437;-64
2022/01/04 13:32:06;;;;;;;48.72;25.90;;;;;;;;;;6257170;28;20529;-64
2022/01/04 13:35:10;;;;;;;49.08;28.50;;;;;;;;;;6258878;28;20053;-64
2022/01/04 13:38:16;;;;;;;55.60;28.98;;;;;;;;;;6259559;28;20064;-64
2022/01/04 13:41:32;;;;;;;55.72;29.02;;;;;;;;;;6259007;28;20054;-64
2022/01/04 13:44:34;;;;;;;52.20;29.38;;;;;;;;;;6257048;28;20080;-64
2022/01/04 13:47:37;;;;;;;58.25;31.10;;;;;;;;;;6253240;28;20468;-64
2022/01/04 13:50:40;;;;;;;56.20;31.65;;;;;;;;;;6258334;28;20080;-65
2022/01/04 13:53:45;;;;;;;57.72;30.85;;;;;;;;;;6259425;28;20111;-64
2022/01/04 13:56:47;;;;;;;59.95;31.58;;;;;;;;;;6257112;28;20060;-64
2022/01/04 13:59:49;;;;;;;58.13;31.40;;;;;;;;;;6261744;28;20052;-64
2022/01/04 14:02:50;;;;;;;61.35;31.60;;;;;;;;;;6260272;28;20045;-64
2022/01/04 14:05:53;;;;;;;55.88;31.52;;;;;;;;;;6258789;28;20176;-65
2022/01/04 14:08:56;;;;;;;62.28;31.85;;;;;;;;;;6256289;28;20060;-64
2022/01/04 14:12:05;;;;;;;57.95;31.77;;;;;;;;;;6256812;28;20493;-64
2022/01/04 14:15:09;;;;;;;57.90;31.40;;;;;;;;;;6252783;28;20056;-65
2022/01/04 14:18:12;;;;;;;58.55;31.42;;;;;;;;;;6259877;28;20062;-65
2022/01/04 14:21:13;;;;;;;57.22;30.42;;;;;;;;;;6254459;28;20056;-64
2022/01/04 14:24:37;;;;;;;50.00;29.63;;;;;;;;;;6256348;28;20048;-64
2022/01/04 14:27:40;;;;;;;62.47;31.05;;;;;;;;;;6253605;28;20505;-68
2022/01/04 14:30:43;;;;;;;54.25;30.27;;;;;;;;;;6257359;28;20056;-68
2022/01/04 14:33:45;;;;;;;51.88;29.20;;;;;;;;;;6254889;28;20064;-66
2022/01/04 14:36:46;;;;;;;52.38;30.30;;;;;;;;;;6262506;28;20041;-64
2022/01/04 14:39:50;;;;;;;49.75;28.65;;;;;;;;;;6256189;28;20122;-64
2022/01/04 14:42:52;;;;;;;50.30;29.58;;;;;;;;;;6259639;28;20148;-64
2022/01/04 14:45:54;;;;;;;49.30;30.02;;;;;;;;;;6264171;28;20049;-64
2022/01/04 14:48:55;;;;;;;47.95;26.67;;;;;;;;;;6255760;28;20080;-64
2022/01/04 14:51:57;;;;;;;43.40;26.45;;;;;;;;;;6255080;28;20045;-64
2022/01/04 14:55:00;;;;;;;42.13;25.17;;;;;;;;;;6253581;28;20715;-64
2022/01/04 14:58:02;;;;;;;42.70;25.83;;;;;;;;;;6249821;28;20566;-65
2022/01/04 15:01:03;;;;;;;46.88;27.25;;;;;;;;;;6257749;28;20059;-65
2022/01/04 15:04:05;;;;;;;41.00;25.38;;;;;;;;;;6253946;28;20126;-64
2022/01/04 15:07:08;;;;;;;45.53;26.48;;;;;;;;;;6252933;28;20126;-64
2022/01/04 15:10:11;;;;;;;40.22;24.98;;;;;;;;;;6261778;28;20044;-64
2022/01/04 15:13:13;;;;;;;48.00;27.30;;;;;;;;;;6252539;28;20068;-64
2022/01/04 15:16:15;;;;;;;44.13;25.90;;;;;;;;;;6257218;28;20445;-64
2022/01/04 15:19:16;;;;;;;47.92;26.75;;;;;;;;;;6251448;28;20077;-64
2022/01/04 15:22:19;;;;;;;46.95;27.13;;;;;;;;;;6250339;28;20493;-65
2022/01/04 15:25:24;;;;;;;48.70;27.27;;;;;;;;;;6251318;28;20211;-65
2022/01/04 15:28:25;;;;;;;51.13;28.17;;;;;;;;;;6256140;28;20410;-64
2022/01/04 15:31:27;;;;;;;50.50;28.08;;;;;;;;;;6249228;28;20564;-64
2022/01/04 15:34:29;;;;;;;46.13;26.17;;;;;;;;;;6250901;28;20045;-64
2022/01/04 15:37:30;;;;;;;47.72;27.98;;;;;;;;;;6254141;28;20154;-64
2022/01/04 15:40:33;;;;;;;44.90;25.85;;;;;;;;;;6251132;28;20041;-64
2022/01/04 15:43:35;;;;;;;50.10;27.05;;;;;;;;;;6255287;28;20142;-64
2022/01/04 15:46:37;;;;;;;44.83;25.83;;;;;;;;;;6255315;28;20053;-64
2022/01/04 15:49:41;;;;;;;45.20;26.70;;;;;;;;;;6255209;28;20053;-64
2022/01/04 15:52:43;;;;;;;51.45;26.85;;;;;;;;;;6259377;28;20067;-64
2022/01/04 15:55:47;;;;;;;48.70;27.80;;;;;;;;;;6261368;28;20172;-64
2022/01/04 15:58:49;;;;;;;46.65;26.52;;;;;;;;;;6260033;28;20187;-65
2022/01/04 16:01:51;;;;;;;41.50;25.08;;;;;;;;;;6256139;28;20064;-64
2022/01/04 16:04:52;;;;;;;44.03;24.63;;;;;;;;;;6259853;28;20050;-64
2022/01/04 16:07:55;;;;;;;42.28;24.05;;;;;;;;;;6257176;28;20041;-64
2022/01/04 16:10:59;;;;;;;40.92;22.85;;;;;;;;;;6258671;28;20091;-65
2022/01/04 16:14:01;;;;;;;44.65;24.50;;;;;;;;;;6256032;28;20061;-64
2022/01/04 16:17:08;;;;;;;41.28;25.27;;;;;;;;;;6263842;28;20639;-64
2022/01/04 16:23:30;;;;;;;43.60;24.48;;;;;;;;;;6259821;28;20474;-64
2022/01/04 16:26:35;;;;;;;46.35;25.90;;;;;;;;;;6264902;28;20417;-64
2022/01/04 16:29:36;;;;;;;39.17;23.60;;;;;;;;;;6260934;28;20040;-64
2022/01/04 16:32:38;;;;;;;41.35;24.58;;;;;;;;;;6260272;28;20049;-65
2022/01/04 16:35:40;;;;;;;39.58;23.48;;;;;;;;;;6255749;28;20053;-64
2022/01/04 16:38:42;;;;;;;38.83;21.58;;;;;;;;;;6258391;28;20049;-64
2022/01/04 16:41:46;;;;;;;38.75;22.90;;;;;;;;;;6260225;28;20052;-64
2022/01/04 16:44:48;;;;;;;38.38;22.67;;;;;;;;;;6257982;28;20132;-64
2022/01/04 16:47:51;;;;;;;40.08;23.05;;;;;;;;;;6254417;28;20052;-64
2022/01/04 16:50:52;;;;;;;50.85;25.92;;;;;;;;;;6262330;28;20048;-64
2022/01/04 16:53:54;;;;;;;40.75;24.40;;;;;;;;;;6261814;28;20166;-64
2022/01/04 16:56:57;;;;;;;43.92;24.10;;;;;;;;;;6262923;28;20143;-64
2022/01/04 16:59:59;;;;;;;41.22;23.20;;;;;;;;;;6257109;28;20136;-63
2022/01/04 17:03:00;;;;;;;39.95;22.67;;;;;;;;;;6259879;28;20052;-64
2022/01/04 17:06:02;;;;;;;41.63;23.33;;;;;;;;;;6257781;28;20144;-64
2022/01/04 17:09:05;;;;;;;43.00;22.52;;;;;;;;;;6262318;28;20092;-64
2022/01/04 17:12:21;;;;;;;37.75;22.13;;;;;;;;;;6261736;28;20049;-64
2022/01/04 17:15:35;;;;;;;36.08;21.65;;;;;;;;;;6262424;28;20041;-64
2022/01/04 17:18:36;;;;;;;33.47;20.83;;;;;;;;;;6266359;28;20084;-63
2022/01/04 17:21:43;;;;;;;31.63;20.65;;;;;;;;;;6259592;28;20200;-64
2022/01/04 17:24:45;;;;;;;31.27;19.23;;;;;;;;;;6258648;28;20424;-64
2022/01/04 17:27:48;;;;;;;29.38;18.95;;;;;;;;;;6260397;28;20183;-64
2022/01/04 17:30:49;;;;;;;35.92;21.02;;;;;;;;;;6257341;28;20057;-64
2022/01/04 17:33:51;;;;;;;31.98;20.20;;;;;;;;;;6253955;28;20135;-64
2022/01/04 17:36:54;;;;;;;26.95;17.40;;;;;;;;;;6257627;28;20072;-64
2022/01/04 17:39:56;;;;;;;28.42;18.30;;;;;;;;;;6253044;28;20144;-64
2022/01/04 17:42:59;;;;;;;27.00;17.95;;;;;;;;;;6257693;28;20054;-64
2022/01/04 17:46:01;;;;;;;23.83;16.17;;;;;;;;;;6257675;28;20594;-64
2022/01/04 17:49:03;;;;;;;23.38;16.27;;;;;;;;;;6263926;28;20049;-64
2022/01/04 17:52:04;;;;;;;26.35;16.70;;;;;;;;;;6258932;28;20049;-64
2022/01/04 17:55:06;;;;;;;23.70;17.63;;;;;;;;;;6255610;28;20390;-65